Time;durP1;ratioP1;P1;durP2;ratioP2;P2;SDS_P1;SDS_P2;PMS_P1;PMS_P2;Temp;Humidity;BMP_temperature;BMP_pressure;BME280_temperature;BME280_humidity;BME280_pressure;Samples;Min_cycle;Max_cycle;Signal;HPM_P1;HPM_P2
2020/12/17 00:00:25;;;;;;;129.43;40.97;;;;;;;0.41;100.00;96289.16;1040746;28;20424;-74
2020/12/17 00:00:56;;;;;;;138.02;41.08;;;;;;;0.41;100.00;96286.56;1040269;28;20135;-71
2020/12/17 00:01:27;;;;;;;118.05;36.63;;;;;;;0.43;100.00;96290.56;1040386;28;20025;-75
2020/12/17 00:02:01;;;;;;;104.95;36.30;;;;;;;0.45;100.00;96285.16;1040367;28;20045;-74
2020/12/17 00:02:31;;;;;;;144.85;37.40;;;;;;;0.38;100.00;96290.38;1045119;28;20264;-73
2020/12/17 00:03:02;;;;;;;157.27;40.40;;;;;;;0.35;100.00;96291.56;1048626;28;20294;-73
2020/12/17 00:03:32;;;;;;;183.95;42.72;;;;;;;0.30;100.00;96293.19;1044513;28;20024;-74
2020/12/17 00:04:03;;;;;;;91.32;32.33;;;;;;;0.31;100.00;96295.56;1044375;28;20397;-74
2020/12/17 00:04:33;;;;;;;100.53;36.53;;;;;;;0.37;100.00;96286.97;1040360;28;20458;-77
2020/12/17 00:05:04;;;;;;;108.70;37.50;;;;;;;0.39;100.00;96297.19;1040477;28;20017;-71
2020/12/17 00:05:34;;;;;;;162.80;42.78;;;;;;;0.29;100.00;96297.56;1040611;28;20022;-74
2020/12/17 00:06:05;;;;;;;109.68;39.40;;;;;;;0.31;100.00;96297.38;1040643;28;20036;-73
2020/12/17 00:06:36;;;;;;;75.32;35.50;;;;;;;0.38;100.00;96299.00;1040653;28;20013;-76
2020/12/17 00:07:06;;;;;;;142.45;39.67;;;;;;;0.38;100.00;96295.59;1040434;28;20104;-76
2020/12/17 00:07:37;;;;;;;88.13;35.17;;;;;;;0.43;100.00;96300.97;1040453;28;20010;-75
2020/12/17 00:08:08;;;;;;;104.15;38.72;;;;;;;0.41;100.00;96302.19;1040344;28;20048;-73
2020/12/17 00:08:39;;;;;;;109.45;38.55;;;;;;;0.36;100.00;96297.59;1040281;28;20358;-74
2020/12/17 00:09:10;;;;;;;151.48;41.03;;;;;;;0.34;100.00;96300.38;1040421;28;20025;-74
2020/12/17 00:09:40;;;;;;;134.90;40.67;;;;;;;0.30;100.00;96295.78;1040349;28;20256;-75
2020/12/17 00:10:12;;;;;;;160.93;41.70;;;;;;;0.29;100.00;96296.78;1035898;28;20053;-73
2020/12/17 00:10:42;;;;;;;103.95;36.83;;;;;;;0.29;100.00;96300.19;1036434;28;20104;-76
2020/12/17 00:11:16;;;;;;;102.00;36.33;;;;;;;0.27;100.00;96298.78;1036092;28;20763;-77
2020/12/17 00:11:46;;;;;;;187.05;45.80;;;;;;;0.30;100.00;96301.00;1040811;28;20620;-77
2020/12/17 00:12:17;;;;;;;137.15;39.63;;;;;;;0.32;100.00;96307.59;1044636;28;20335;-76
2020/12/17 00:12:53;;;;;;;183.10;41.53;;;;;;;0.31;100.00;96298.19;1036809;28;20395;-72
2020/12/17 00:13:23;;;;;;;186.15;43.63;;;;;;;0.32;100.00;96302.41;1039552;28;20401;-73
2020/12/17 00:13:54;;;;;;;121.00;40.08;;;;;;;0.34;100.00;96297.00;1036155;28;20414;-70
2020/12/17 00:14:24;;;;;;;187.25;45.53;;;;;;;0.35;100.00;96301.97;1036262;28;20557;-76
2020/12/17 00:14:55;;;;;;;113.60;37.53;;;;;;;0.38;100.00;96303.41;1036387;28;20022;-75
2020/12/17 00:15:25;;;;;;;113.07;37.95;;;;;;;0.38;100.00;96292.97;1040402;28;20063;-75
2020/12/17 00:15:56;;;;;;;174.43;44.33;;;;;;;0.35;100.00;96296.78;1040621;28;20017;-73
2020/12/17 00:16:27;;;;;;;142.95;41.10;;;;;;;0.41;100.00;96295.16;1032110;28;20064;-73
2020/12/17 00:16:58;;;;;;;187.30;44.88;;;;;;;0.42;100.00;96295.97;1032031;28;20053;-71
2020/12/17 00:17:28;;;;;;;154.43;43.00;;;;;;;0.32;100.00;96297.19;1032235;28;20021;-72
2020/12/17 00:17:59;;;;;;;150.93;40.88;;;;;;;0.39;100.00;96302.38;1036392;28;20018;-73
2020/12/17 00:18:29;;;;;;;121.95;36.83;;;;;;;0.40;100.00;96298.78;1040471;28;20083;-73
2020/12/17 00:19:00;;;;;;;113.63;39.45;;;;;;;0.38;100.00;96298.19;1040489;28;20024;-74
2020/12/17 00:19:30;;;;;;;159.65;40.85;;;;;;;0.39;100.00;96297.19;1043811;28;20025;-74
2020/12/17 00:20:00;;;;;;;98.22;37.08;;;;;;;0.45;100.00;96301.56;1036153;28;20106;-74
2020/12/17 00:20:31;;;;;;;134.63;40.53;;;;;;;0.45;100.00;96298.97;1032188;28;20019;-75
2020/12/17 00:21:01;;;;;;;157.50;39.85;;;;;;;0.43;100.00;96298.38;1032347;28;20395;-74
2020/12/17 00:21:32;;;;;;;178.63;42.38;;;;;;;0.36;100.00;96301.00;1036356;28;20018;-74
2020/12/17 00:22:03;;;;;;;140.93;37.80;;;;;;;0.41;100.00;96300.38;1044083;28;20052;-73
2020/12/17 00:22:36;;;;;;;153.20;40.13;;;;;;;0.44;100.00;96301.78;1048505;28;20021;-75
2020/12/17 00:23:07;;;;;;;130.43;36.97;;;;;;;0.46;100.00;96297.19;1048490;28;20021;-72
2020/12/17 00:23:39;;;;;;;108.68;35.97;;;;;;;0.44;100.00;96297.38;1047423;28;20308;-76
2020/12/17 00:24:11;;;;;;;169.15;40.08;;;;;;;0.45;100.00;96298.19;1040227;28;20049;-74
2020/12/17 00:24:42;;;;;;;134.70;37.53;;;;;;;0.50;100.00;96293.97;1039525;28;20255;-73
2020/12/17 00:25:13;;;;;;;131.15;38.08;;;;;;;0.52;100.00;96291.97;1040419;28;20260;-74
2020/12/17 00:25:46;;;;;;;174.00;41.28;;;;;;;0.45;100.00;96288.56;1036774;28;20014;-73
2020/12/17 00:26:17;;;;;;;247.02;43.97;;;;;;;0.51;100.00;96299.97;1040155;28;20684;-74
2020/12/17 00:26:47;;;;;;;139.32;36.35;;;;;;;0.55;100.00;96288.94;1032144;28;20308;-74
2020/12/17 00:27:18;;;;;;;154.88;39.72;;;;;;;0.56;100.00;96289.75;1032453;28;20328;-71
2020/12/17 00:27:48;;;;;;;131.35;36.03;;;;;;;0.49;100.00;96292.34;1032094;28;20030;-73
2020/12/17 00:28:19;;;;;;;156.38;38.13;;;;;;;0.40;100.00;96290.97;1032388;28;20030;-68
2020/12/17 00:28:49;;;;;;;159.52;38.75;;;;;;;0.38;100.00;96296.38;1040349;28;20017;-71
2020/12/17 00:29:20;;;;;;;133.98;37.80;;;;;;;0.26;100.00;96294.56;1040320;28;20030;-75
2020/12/17 00:29:51;;;;;;;134.75;37.67;;;;;;;0.28;100.00;96292.56;1040655;28;20025;-75
2020/12/17 00:30:21;;;;;;;143.40;41.50;;;;;;;0.30;100.00;96299.19;1040600;28;20249;-72
2020/12/17 00:30:52;;;;;;;143.38;42.65;;;;;;;0.35;100.00;96296.78;1040661;28;20013;-73
2020/12/17 00:31:22;;;;;;;133.52;39.22;;;;;;;0.36;100.00;96300.19;1040624;28;20087;-71
2020/12/17 00:31:53;;;;;;;124.07;37.40;;;;;;;0.41;100.00;96304.78;1040161;28;20362;-75
2020/12/17 00:32:25;;;;;;;161.02;38.47;;;;;;;0.40;100.00;96304.00;1040271;28;20080;-76
2020/12/17 00:32:55;;;;;;;177.73;44.30;;;;;;;0.42;100.00;96301.16;1036202;28;20837;-73
2020/12/17 00:33:26;;;;;;;306.67;57.78;;;;;;;0.44;100.00;96310.41;1032418;28;20266;-73
2020/12/17 00:33:56;;;;;;;308.60;56.72;;;;;;;0.50;100.00;96317.41;1027953;28;20174;-72
2020/12/17 00:34:27;;;;;;;194.75;48.63;;;;;;;0.48;100.00;96310.81;1029791;28;20019;-74
2020/12/17 00:34:57;;;;;;;210.40;48.75;;;;;;;0.49;100.00;96313.19;1032298;28;20038;-72
2020/12/17 00:35:28;;;;;;;229.25;49.60;;;;;;;0.51;100.00;96326.81;1036395;28;20108;-75
2020/12/17 00:35:58;;;;;;;155.63;47.22;;;;;;;0.49;100.00;96315.78;1044339;28;20031;-73
2020/12/17 00:36:29;;;;;;;256.10;52.13;;;;;;;0.58;100.00;96319.00;1044285;28;20021;-74
2020/12/17 00:36:59;;;;;;;154.57;44.58;;;;;;;0.62;100.00;96320.19;1043722;28;20191;-72
2020/12/17 00:37:34;;;;;;;200.73;45.28;;;;;;;0.63;100.00;96323.59;1044012;28;20009;-74
2020/12/17 00:38:05;;;;;;;247.30;53.05;;;;;;;0.56;100.00;96324.41;1036194;28;20021;-75
2020/12/17 00:38:35;;;;;;;261.95;51.97;;;;;;;0.56;100.00;96321.00;1040265;28;20356;-69
2020/12/17 00:39:05;;;;;;;223.40;49.60;;;;;;;0.53;100.00;96321.41;1040273;28;20037;-72
2020/12/17 00:39:37;;;;;;;321.45;57.90;;;;;;;0.56;100.00;96324.41;1040221;28;20425;-71
2020/12/17 00:40:10;;;;;;;323.58;61.03;;;;;;;0.55;100.00;96320.19;1039912;28;20021;-74
2020/12/17 00:40:40;;;;;;;368.73;67.78;;;;;;;0.55;100.00;96319.41;1036174;28;20896;-73
2020/12/17 00:41:12;;;;;;;471.75;68.78;;;;;;;0.58;100.00;96319.00;1036185;28;20245;-71
2020/12/17 00:41:43;;;;;;;302.60;59.10;;;;;;;0.62;100.00;96309.78;1040947;28;20032;-75
2020/12/17 00:42:13;;;;;;;276.60;55.05;;;;;;;0.55;100.00;96308.97;1044307;28;20337;-70
2020/12/17 00:42:45;;;;;;;285.15;61.33;;;;;;;0.65;100.00;96316.38;1044353;28;20105;-73
2020/12/17 00:43:15;;;;;;;191.55;49.40;;;;;;;0.68;100.00;96318.59;1039973;28;20112;-74
2020/12/17 00:43:46;;;;;;;115.75;38.53;;;;;;;0.63;100.00;96318.38;1040240;28;20268;-69
2020/12/17 00:44:16;;;;;;;135.18;40.22;;;;;;;0.63;100.00;96315.78;1036169;28;20021;-73
2020/12/17 00:44:47;;;;;;;215.30;44.67;;;;;;;0.64;100.00;96312.19;1037645;28;20026;-73
2020/12/17 00:45:17;;;;;;;219.70;45.60;;;;;;;0.58;100.00;96312.00;1040048;28;20389;-74
2020/12/17 00:45:48;;;;;;;176.98;44.65;;;;;;;0.52;100.00;96315.41;1036315;28;20028;-73
2020/12/17 00:46:18;;;;;;;131.05;40.47;;;;;;;0.54;100.00;96317.81;1040180;28;20030;-70
2020/12/17 00:46:49;;;;;;;157.35;44.38;;;;;;;0.51;100.00;96313.00;1040249;28;20599;-72
2020/12/17 00:47:20;;;;;;;122.28;40.78;;;;;;;0.56;100.00;96316.59;1040210;28;20440;-73
2020/12/17 00:47:50;;;;;;;178.70;47.03;;;;;;;0.51;100.00;96316.38;1040274;28;20252;-72
2020/12/17 00:48:21;;;;;;;348.83;59.10;;;;;;;0.52;100.00;96315.41;1040181;28;20075;-73
2020/12/17 00:48:51;;;;;;;275.02;55.20;;;;;;;0.51;100.00;96318.19;1036312;28;20032;-76
2020/12/17 00:49:22;;;;;;;289.88;59.22;;;;;;;0.53;100.00;96317.00;1040184;28;20029;-75
2020/12/17 00:49:52;;;;;;;371.92;65.80;;;;;;;0.57;100.00;96315.56;1036243;28;20532;-69
2020/12/17 00:50:23;;;;;;;383.08;66.53;;;;;;;0.63;100.00;96316.59;1031978;28;20030;-70
2020/12/17 00:50:53;;;;;;;275.83;53.85;;;;;;;0.68;100.00;96322.00;1036161;28;20409;-73
2020/12/17 00:51:24;;;;;;;299.17;54.58;;;;;;;0.67;100.00;96316.97;1031939;28;20081;-74
2020/12/17 00:52:01;;;;;;;377.13;72.78;;;;;;;0.67;100.00;96314.38;1036303;28;20028;-76
2020/12/17 00:52:35;;;;;;;267.92;51.05;;;;;;;0.66;100.00;96318.00;1035821;28;20406;-71
2020/12/17 00:53:06;;;;;;;209.88;51.35;;;;;;;0.52;100.00;96317.22;1037545;28;20260;-72
2020/12/17 00:53:36;;;;;;;136.75;41.58;;;;;;;0.51;100.00;96311.19;1040161;28;21376;-72
2020/12/17 00:54:07;;;;;;;114.97;37.30;;;;;;;0.52;100.00;96312.78;1036862;28;20029;-75
2020/12/17 00:54:38;;;;;;;226.45;47.63;;;;;;;0.51;100.00;96324.19;1039866;28;20080;-76
2020/12/17 00:55:09;;;;;;;167.57;43.03;;;;;;;0.56;100.00;96308.00;1036120;28;20134;-75
2020/12/17 00:55:40;;;;;;;229.00;47.03;;;;;;;0.52;100.00;96312.00;1036310;28;20468;-74
2020/12/17 00:56:10;;;;;;;163.30;49.28;;;;;;;0.50;100.00;96306.19;1040268;28;20017;-72
2020/12/17 00:56:45;;;;;;;171.82;51.67;;;;;;;0.51;100.00;96313.00;1040142;28;20557;-74
2020/12/17 00:57:16;;;;;;;235.98;54.10;;;;;;;0.54;100.00;96316.00;1040524;28;20030;-75
2020/12/17 00:57:47;;;;;;;200.32;45.92;;;;;;;0.55;100.00;96312.38;1040473;28;20625;-75
2020/12/17 00:58:17;;;;;;;152.35;40.60;;;;;;;0.56;100.00;96318.41;1044489;28;20029;-75
2020/12/17 00:58:48;;;;;;;192.30;42.78;;;;;;;0.50;100.00;96306.19;1044311;28;20028;-72
2020/12/17 00:59:18;;;;;;;83.25;31.92;;;;;;;0.47;100.00;96307.38;1044275;28;20025;-73
2020/12/17 00:59:49;;;;;;;56.42;26.60;;;;;;;0.44;100.00;96305.19;1044251;28;20071;-74
2020/12/17 01:00:19;;;;;;;61.92;28.70;;;;;;;0.44;100.00;96310.41;1044259;28;20021;-75
2020/12/17 01:00:50;;;;;;;93.80;30.85;;;;;;;0.47;100.00;96306.59;1044302;28;20028;-74
2020/12/17 01:01:20;;;;;;;85.18;31.15;;;;;;;0.41;100.00;96305.59;1044201;28;20025;-74
2020/12/17 01:01:51;;;;;;;80.65;30.40;;;;;;;0.41;100.00;96302.19;1044291;28;20037;-73
2020/12/17 01:02:21;;;;;;;69.70;29.27;;;;;;;0.38;100.00;96303.41;1044299;28;20065;-73
2020/12/17 01:02:52;;;;;;;75.55;31.05;;;;;;;0.44;100.00;96305.19;1044298;28;20025;-71
2020/12/17 01:03:22;;;;;;;64.28;26.88;;;;;;;0.41;100.00;96310.00;1044248;28;20017;-73
2020/12/17 01:03:53;;;;;;;95.47;33.42;;;;;;;0.38;100.00;96300.78;1044257;28;20032;-76
2020/12/17 01:04:24;;;;;;;101.72;34.85;;;;;;;0.34;100.00;96299.59;1040487;28;20108;-76
2020/12/17 01:04:55;;;;;;;87.55;30.95;;;;;;;0.34;100.00;96297.78;1040069;28;20645;-71
2020/12/17 01:05:26;;;;;;;82.10;32.28;;;;;;;0.38;100.00;96298.19;1036107;28;20021;-74
2020/12/17 01:05:58;;;;;;;77.30;30.02;;;;;;;0.43;100.00;96297.59;1023440;28;20062;-77
2020/12/17 01:06:29;;;;;;;72.15;29.55;;;;;;;0.43;100.00;96295.78;1024157;29;20644;-73
2020/12/17 01:07:00;;;;;;;68.88;29.55;;;;;;;0.36;100.00;96293.19;1028055;28;20275;-76
2020/12/17 01:07:32;;;;;;;65.72;27.77;;;;;;;0.41;100.00;96299.59;1036087;28;20117;-74
2020/12/17 01:08:03;;;;;;;73.97;32.55;;;;;;;0.37;100.00;96297.38;1031954;28;20782;-76
2020/12/17 01:08:34;;;;;;;71.32;29.35;;;;;;;0.39;100.00;96299.78;1033048;28;20274;-75
2020/12/17 01:09:09;;;;;;;65.88;29.73;;;;;;;0.41;100.00;96299.59;1035733;28;20173;-74
2020/12/17 01:09:39;;;;;;;89.82;31.63;;;;;;;0.38;100.00;96306.78;1032224;28;20284;-76
2020/12/17 01:10:10;;;;;;;88.57;31.42;;;;;;;0.36;100.00;96297.59;1032856;28;20853;-74
2020/12/17 01:10:40;;;;;;;77.18;30.17;;;;;;;0.32;100.00;96306.81;1033179;28;20022;-74
2020/12/17 01:11:11;;;;;;;79.88;31.27;;;;;;;0.33;100.00;96300.59;1036146;28;20469;-74
2020/12/17 01:11:41;;;;;;;66.22;29.20;;;;;;;0.36;100.00;96302.81;1036148;28;20029;-75
2020/12/17 01:12:12;;;;;;;82.55;31.55;;;;;;;0.34;100.00;96307.41;1036418;28;20076;-74
2020/12/17 01:12:42;;;;;;;57.05;28.08;;;;;;;0.35;100.00;96309.00;1036352;28;20026;-73
2020/12/17 01:13:13;;;;;;;73.03;29.75;;;;;;;0.32;100.00;96307.59;1032043;28;20092;-75
2020/12/17 01:13:43;;;;;;;66.07;28.50;;;;;;;0.35;100.00;96304.56;1031953;28;20364;-75
2020/12/17 01:14:14;;;;;;;75.88;28.58;;;;;;;0.34;100.00;96305.59;1032090;28;20021;-71
2020/12/17 01:14:44;;;;;;;66.78;28.02;;;;;;;0.35;100.00;96299.38;1032074;28;20014;-76
2020/12/17 01:15:15;;;;;;;178.85;42.10;;;;;;;0.39;100.00;96297.97;1035653;28;20026;-75
2020/12/17 01:15:46;;;;;;;70.68;25.92;;;;;;;0.32;100.00;96301.59;1036023;28;20043;-72
2020/12/17 01:16:17;;;;;;;81.10;29.85;;;;;;;0.33;100.00;96298.78;1036057;28;20623;-75
2020/12/17 01:16:47;;;;;;;109.00;33.63;;;;;;;0.35;100.00;96306.38;1036131;28;20261;-73
2020/12/17 01:17:20;;;;;;;106.65;34.15;;;;;;;0.41;100.00;96305.59;1036544;28;20022;-75
2020/12/17 01:17:53;;;;;;;67.80;29.13;;;;;;;0.41;100.00;96310.78;1036414;28;20319;-74
2020/12/17 01:18:23;;;;;;;59.08;29.08;;;;;;;0.37;100.00;96315.59;1035943;28;20291;-75
2020/12/17 01:18:54;;;;;;;103.43;32.47;;;;;;;0.34;100.00;96308.19;1036127;28;20351;-77
2020/12/17 01:19:24;;;;;;;74.88;28.40;;;;;;;0.34;100.00;96304.81;1036150;28;20018;-74
2020/12/17 01:19:55;;;;;;;80.30;29.60;;;;;;;0.31;100.00;96302.59;1036100;28;20036;-76
2020/12/17 01:20:28;;;;;;;70.97;29.13;;;;;;;0.31;100.00;96300.00;1036504;28;20021;-72
2020/12/17 01:20:59;;;;;;;76.93;30.25;;;;;;;0.33;100.00;96303.19;1036403;28;20028;-73
2020/12/17 01:21:30;;;;;;;68.53;29.98;;;;;;;0.29;100.00;96300.19;1040014;28;20275;-75
2020/12/17 01:22:01;;;;;;;73.22;29.52;;;;;;;0.27;100.00;96304.00;1036031;28;20025;-74
2020/12/17 01:22:31;;;;;;;71.85;29.10;;;;;;;0.30;100.00;96303.59;1036049;28;20109;-74
2020/12/17 01:23:01;;;;;;;82.45;30.27;;;;;;;0.32;100.00;96297.19;1031935;28;20106;-74
2020/12/17 01:23:32;;;;;;;72.47;29.77;;;;;;;0.31;100.00;96305.19;1031967;28;20026;-76
2020/12/17 01:24:03;;;;;;;76.38;29.27;;;;;;;0.32;100.00;96301.59;1036048;28;20025;-73
2020/12/17 01:24:33;;;;;;;84.88;30.60;;;;;;;0.32;100.00;96296.41;1035764;28;20049;-74
2020/12/17 01:25:04;;;;;;;84.50;31.42;;;;;;;0.31;100.00;96305.19;1036099;28;20057;-74
2020/12/17 01:25:34;;;;;;;106.18;34.85;;;;;;;0.29;100.00;96308.00;1036099;28;20018;-74
2020/12/17 01:26:08;;;;;;;77.45;31.67;;;;;;;0.31;100.00;96302.59;1036000;28;20022;-75
2020/12/17 01:26:38;;;;;;;113.70;35.47;;;;;;;0.27;100.00;96306.59;1035987;28;20014;-74
2020/12/17 01:27:09;;;;;;;100.18;33.30;;;;;;;0.28;100.00;96301.19;1036152;28;20272;-73
2020/12/17 01:27:39;;;;;;;74.70;30.90;;;;;;;0.31;100.00;96298.19;1036420;28;20125;-75
2020/12/17 01:28:11;;;;;;;79.70;32.17;;;;;;;0.34;100.00;96307.41;1036017;28;20076;-75
2020/12/17 01:28:42;;;;;;;80.72;31.40;;;;;;;0.37;100.00;96305.19;1036031;28;20029;-70
2020/12/17 01:29:12;;;;;;;208.77;42.35;;;;;;;0.41;100.00;96308.19;1036009;28;20273;-74
2020/12/17 01:29:43;;;;;;;113.45;36.65;;;;;;;0.43;100.00;96308.78;1036041;28;20029;-75
2020/12/17 01:30:13;;;;;;;159.95;40.08;;;;;;;0.46;100.00;96311.00;1036057;28;20075;-73
2020/12/17 01:30:44;;;;;;;108.13;35.67;;;;;;;0.46;100.00;96308.41;1036341;28;20087;-71
2020/12/17 01:31:15;;;;;;;112.35;34.10;;;;;;;0.45;100.00;96306.00;1036419;28;20533;-76
2020/12/17 01:31:46;;;;;;;146.32;36.10;;;;;;;0.44;100.00;96310.41;1040088;28;20068;-74
2020/12/17 01:32:16;;;;;;;64.78;26.92;;;;;;;0.48;100.00;96313.41;1040200;28;20260;-74
2020/12/17 01:32:47;;;;;;;102.75;32.55;;;;;;;0.43;100.00;96308.78;1040278;28;20359;-74
2020/12/17 01:33:19;;;;;;;104.13;33.40;;;;;;;0.45;100.00;96313.81;1036079;28;20022;-76
2020/12/17 01:33:49;;;;;;;91.72;30.15;;;;;;;0.39;100.00;96307.59;1031732;28;20125;-76
2020/12/17 01:34:20;;;;;;;93.78;29.95;;;;;;;0.40;100.00;96314.41;1031947;28;20277;-69
2020/12/17 01:34:52;;;;;;;115.35;33.05;;;;;;;0.46;100.00;96318.03;1028134;28;20022;-75
2020/12/17 01:35:22;;;;;;;70.50;28.05;;;;;;;0.46;100.00;96315.41;1028161;28;20110;-74
2020/12/17 01:35:52;;;;;;;73.35;28.95;;;;;;;0.46;100.00;96315.41;1030899;28;20272;-70
2020/12/17 01:36:23;;;;;;;73.53;30.67;;;;;;;0.39;100.00;96310.97;1035656;28;20022;-76
2020/12/17 01:36:54;;;;;;;93.20;33.85;;;;;;;0.40;100.00;96314.41;1035536;28;20081;-74
2020/12/17 01:37:24;;;;;;;80.25;31.10;;;;;;;0.42;100.00;96309.81;1039994;28;20021;-74
2020/12/17 01:37:55;;;;;;;83.72;31.02;;;;;;;0.41;100.00;96310.78;1040006;28;20080;-74
2020/12/17 01:38:25;;;;;;;99.43;34.28;;;;;;;0.40;100.00;96314.41;1036118;28;20022;-74
2020/12/17 01:38:56;;;;;;;134.25;36.92;;;;;;;0.36;100.00;96314.00;1035968;28;20155;-75
2020/12/17 01:39:26;;;;;;;108.88;34.75;;;;;;;0.45;100.00;96308.59;1036087;28;20104;-70
2020/12/17 01:39:57;;;;;;;128.10;36.63;;;;;;;0.45;100.00;96311.19;1039858;28;20029;-73
2020/12/17 01:40:28;;;;;;;107.45;32.50;;;;;;;0.49;100.00;96310.59;1036177;28;20026;-75
2020/12/17 01:40:59;;;;;;;198.38;45.88;;;;;;;0.49;100.00;96315.00;1029536;28;20031;-76
2020/12/17 01:41:30;;;;;;;149.63;35.92;;;;;;;0.44;100.00;96307.81;1031902;28;20273;-73
2020/12/17 01:42:00;;;;;;;78.80;30.38;;;;;;;0.53;100.00;96303.97;1032238;28;20170;-72
2020/12/17 01:42:31;;;;;;;98.93;32.33;;;;;;;0.54;100.00;96307.41;1036040;28;20026;-74
2020/12/17 01:43:02;;;;;;;93.03;33.40;;;;;;;0.47;100.00;96307.38;1036193;28;20025;-75
2020/12/17 01:43:40;;;;;;;107.88;33.70;;;;;;;0.41;100.00;96302.19;1040241;28;20029;-72
2020/12/17 01:44:10;;;;;;;104.38;34.13;;;;;;;0.39;100.00;96302.38;1040030;28;20244;-74
2020/12/17 01:44:41;;;;;;;101.05;32.50;;;;;;;0.39;100.00;96295.38;1040046;28;20303;-74
2020/12/17 01:45:16;;;;;;;117.10;34.65;;;;;;;0.45;100.00;96303.38;1039928;28;20017;-75
2020/12/17 01:45:50;;;;;;;126.40;36.55;;;;;;;0.44;100.00;96297.38;1040131;28;20260;-77
2020/12/17 01:46:20;;;;;;;172.95;42.92;;;;;;;0.38;100.00;96304.19;1038793;28;20257;-77
2020/12/17 01:46:52;;;;;;;130.13;35.88;;;;;;;0.41;100.00;96310.00;1035893;28;20257;-74
2020/12/17 01:47:24;;;;;;;102.13;35.65;;;;;;;0.43;100.00;96308.78;1036033;28;20520;-74
2020/12/17 01:47:55;;;;;;;96.68;33.63;;;;;;;0.52;100.00;96302.38;1028471;28;20360;-74
2020/12/17 01:48:25;;;;;;;128.40;38.15;;;;;;;0.51;100.00;96302.56;1028010;28;20313;-74
2020/12/17 01:48:57;;;;;;;77.43;32.65;;;;;;;0.56;100.00;96302.78;1027873;28;20019;-75
2020/12/17 01:49:27;;;;;;;195.63;44.00;;;;;;;0.53;100.00;96311.78;1031875;28;20018;-75
2020/12/17 01:50:01;;;;;;;178.90;42.55;;;;;;;0.44;100.00;96304.38;1032049;28;20266;-74
2020/12/17 01:50:31;;;;;;;129.63;38.83;;;;;;;0.44;100.00;96310.41;1035890;28;20097;-75
2020/12/17 01:51:03;;;;;;;151.38;38.58;;;;;;;0.45;100.00;96311.19;1031924;28;20610;-74
2020/12/17 01:51:33;;;;;;;147.90;36.97;;;;;;;0.43;100.00;96306.19;1032530;28;20030;-75
2020/12/17 01:52:04;;;;;;;233.93;49.55;;;;;;;0.45;100.00;96304.19;1031665;28;20272;-73
2020/12/17 01:52:34;;;;;;;168.55;41.95;;;;;;;0.42;100.00;96308.97;1028132;28;20471;-77
2020/12/17 01:53:05;;;;;;;119.07;38.55;;;;;;;0.39;100.00;96305.00;1031928;28;20049;-73
2020/12/17 01:53:37;;;;;;;121.65;35.40;;;;;;;0.38;100.00;96306.78;1032050;28;20022;-76
2020/12/17 01:54:07;;;;;;;127.07;35.70;;;;;;;0.31;100.00;96308.59;1036156;28;20030;-75
2020/12/17 01:54:38;;;;;;;118.90;35.45;;;;;;;0.30;100.00;96307.00;1043678;28;20334;-70
2020/12/17 01:55:08;;;;;;;163.88;39.35;;;;;;;0.26;100.00;96303.19;1039965;28;20505;-76
2020/12/17 01:55:39;;;;;;;133.55;38.47;;;;;;;0.26;100.00;96299.78;1036131;28;20049;-76
2020/12/17 01:56:12;;;;;;;151.20;37.53;;;;;;;0.26;100.00;96300.59;1035922;28;20454;-77
2020/12/17 01:56:43;;;;;;;129.98;36.22;;;;;;;0.30;100.00;96299.19;1028315;28;20026;-74
2020/12/17 01:57:14;;;;;;;131.27;35.17;;;;;;;0.34;100.00;96303.00;1024609;28;20318;-75
2020/12/17 01:57:44;;;;;;;153.18;39.40;;;;;;;0.31;100.00;96302.59;1032056;28;20249;-74
2020/12/17 01:58:20;;;;;;;120.82;32.85;;;;;;;0.35;100.00;96306.38;1028603;28;20030;-74
2020/12/17 01:59:22;;;;;;;141.75;38.35;;;;;;;0.32;100.00;96306.81;1033245;28;20027;-75
2020/12/17 01:59:52;;;;;;;135.63;34.70;;;;;;;0.28;100.00;96311.59;1027998;28;20286;-76
2020/12/17 02:00:23;;;;;;;179.30;42.42;;;;;;;0.24;100.00;96309.59;1020069;29;20608;-75
2020/12/17 02:00:53;;;;;;;109.00;34.83;;;;;;;0.29;100.00;96315.78;1019972;29;20424;-74
2020/12/17 02:01:25;;;;;;;187.48;45.28;;;;;;;0.33;100.00;96321.41;1020487;28;20034;-74
2020/12/17 02:01:55;;;;;;;121.32;34.28;;;;;;;0.33;100.00;96322.19;1024310;28;20046;-75
2020/12/17 02:02:27;;;;;;;122.50;40.40;;;;;;;0.35;100.00;96325.41;1040131;28;20252;-75
2020/12/17 02:02:58;;;;;;;126.15;37.80;;;;;;;0.39;100.00;96320.59;1039935;28;20037;-72
2020/12/17 02:03:30;;;;;;;90.65;33.53;;;;;;;0.46;100.00;96333.66;1031988;28;20610;-73
2020/12/17 02:04:02;;;;;;;194.82;40.47;;;;;;;0.53;100.00;96332.63;1031420;28;20423;-73
2020/12/17 02:04:32;;;;;;;257.27;45.60;;;;;;;0.49;100.00;96325.41;1029085;28;20266;-74
2020/12/17 02:05:04;;;;;;;134.60;35.38;;;;;;;0.45;100.00;96332.81;1032889;28;20721;-74
2020/12/17 02:05:35;;;;;;;118.32;36.17;;;;;;;0.47;100.00;96330.81;1040000;28;20531;-76
2020/12/17 02:06:05;;;;;;;103.22;31.85;;;;;;;0.47;100.00;96327.41;1031869;28;20297;-74
2020/12/17 02:06:36;;;;;;;151.00;41.22;;;;;;;0.48;100.00;96329.03;1036250;28;20029;-76
2020/12/17 02:07:07;;;;;;;128.35;34.97;;;;;;;0.43;100.00;96327.00;1040124;28;20029;-76
2020/12/17 02:07:37;;;;;;;155.00;38.28;;;;;;;0.34;100.00;96325.63;1036176;28;20028;-75
2020/12/17 02:08:09;;;;;;;106.47;34.65;;;;;;;0.41;100.00;96326.41;1039943;28;20048;-76
2020/12/17 02:08:40;;;;;;;104.18;32.42;;;;;;;0.49;100.00;96328.00;1031906;28;20121;-73
2020/12/17 02:09:10;;;;;;;167.15;38.45;;;;;;;0.45;100.00;96330.22;1031921;28;20261;-75
2020/12/17 02:09:41;;;;;;;75.45;32.05;;;;;;;0.50;100.00;96329.63;1031911;28;20029;-72
2020/12/17 02:10:11;;;;;;;106.85;35.13;;;;;;;0.45;100.00;96326.81;1032245;28;20027;-76
2020/12/17 02:10:42;;;;;;;92.70;31.65;;;;;;;0.45;100.00;96326.81;1031936;28;20117;-75
2020/12/17 02:11:12;;;;;;;100.60;34.92;;;;;;;0.46;100.00;96326.63;1036004;28;20022;-75
2020/12/17 02:11:55;;;;;;;229.13;44.85;;;;;;;0.46;100.00;96334.44;1044157;28;20024;-75
2020/12/17 02:12:44;;;;;;;110.85;33.03;;;;;;;0.44;100.00;96330.41;1046093;28;20013;-76
2020/12/17 02:13:23;;;;;;;170.85;38.33;;;;;;;0.40;100.00;96324.81;1047789;28;20254;-76
2020/12/17 02:13:54;;;;;;;128.07;35.92;;;;;;;0.39;100.00;96326.59;1043833;28;20874;-75
2020/12/17 02:14:24;;;;;;;125.32;35.58;;;;;;;0.38;100.00;96329.44;1044118;28;20270;-74
2020/12/17 02:14:55;;;;;;;193.88;41.30;;;;;;;0.37;100.00;96327.81;1044154;28;20101;-76
2020/12/17 02:15:27;;;;;;;117.50;35.22;;;;;;;0.37;100.00;96333.81;1039730;28;20103;-75
2020/12/17 02:16:00;;;;;;;116.57;33.70;;;;;;;0.41;100.00;96331.63;1040187;28;20024;-76
2020/12/17 02:16:31;;;;;;;77.97;32.00;;;;;;;0.49;100.00;96336.63;1035896;28;20260;-75
2020/12/17 02:17:02;;;;;;;268.25;53.95;;;;;;;0.44;100.00;96333.84;1031885;28;20256;-72
2020/12/17 02:17:32;;;;;;;335.13;55.92;;;;;;;0.42;100.00;96338.44;1031896;28;20042;-77
2020/12/17 02:18:03;;;;;;;310.65;49.25;;;;;;;0.50;100.00;96334.84;1031883;28;20057;-75
2020/12/17 02:18:34;;;;;;;123.30;36.42;;;;;;;0.52;100.00;96338.84;1035988;28;20022;-77
2020/12/17 02:19:04;;;;;;;83.28;31.00;;;;;;;0.52;100.00;96333.63;1031836;28;20076;-76
2020/12/17 02:19:35;;;;;;;145.90;39.60;;;;;;;0.43;100.00;96328.81;1032114;28;20458;-72
2020/12/17 02:20:06;;;;;;;83.53;32.10;;;;;;;0.48;100.00;96326.44;1035834;28;20025;-73
2020/12/17 02:20:37;;;;;;;143.25;30.90;;;;;;;0.35;100.00;96327.22;1036218;28;20060;-75
2020/12/17 02:21:07;;;;;;;75.82;30.25;;;;;;;0.39;100.00;96318.78;1040306;28;20256;-74
2020/12/17 02:21:38;;;;;;;76.75;28.98;;;;;;;0.43;100.00;96321.81;1044153;28;20013;-74
2020/12/17 02:22:08;;;;;;;71.68;29.75;;;;;;;0.43;100.00;96321.81;1044075;28;20055;-75
2020/12/17 02:22:39;;;;;;;64.75;28.77;;;;;;;0.50;100.00;96321.81;1039670;28;20018;-74